Mesa, AZ

9:21 PM MST on February 05, 2016 (GMT -0700)
The Willows at Power Ranch | | Change Station
CLOSE
Current Station
Personal Weather Station
Location: Gilbert, AZ
Elevation: 1360 ft
Nearby Weather Stations

Elev 1360 ft 33.28 °N, 111.70 °W | Updated 12 minutes ago

Clear
Clear
52.9 °F
Feels Like 52.9 °F
N
2.2
Wind Variable Wind from NNE

Today
High -- | Low -- °F
--% Chance of Precip.
Yesterday
High -- | Low -- °F
Precip. -- in
Pressure 30.29 in
Visibility 25.0 miles
Clouds Clear
Dew Point 17 °F
Humidity 24%
Rainfall 0.00 in
Snow Depth Not available.
7:19 AM 6:01 PM
Waning Crescent, 7% visible
METAR KIWA 060247Z 03009KT 25SM SKC 12/M08 A3029
Pressure 30.29 in
Visibility 25.0 miles
Clouds Clear
Dew Point 17 °F
Humidity 24%
Rainfall 0.00 in
Snow Depth Not available.
7:19 AM 6:01 PM
Waning Crescent, 7% visible
METAR KIWA 060247Z 03009KT 25SM SKC 12/M08 A3029

10-Day Weather Forecast

Almanac

Astronomy

Feb. 05, 2016 Rise Set
Actual Time
Civil Twilight
Nautical Twilight
Astronomical Twilight
Moon
Length of Visible Light
Length of Day
Tomorrow will be .
, % of the Moon is Illuminated

Today's Extremes

State Highs State Lows

Community

WunderPhotos

Upload Photos

1,890,917 photos uploaded!

WunderBlog® & News

Nearby

Air Quality

  Air Quality AQ Index Pollutant
Not available.

Snow Depth

Station Depth Elevation

Earthquake Activity

City Distance Mag. Time & Date
Minimum magnitude displayed is 2.5.

Coastal Water Temperatures

Place Temperature

Stations

Nearby Weather Stations

Station Location Temp. Windchill Dew Point Humidity Wind Precip. Elev Updated Type
                   

Watches & Warnings

There are currently no watches in effect.